Terminal Aerodrome Forecast
Issued by NWS Central Illinois

Home | Current Version | Previous Version | Text Only | Print | Product List | Glossary On
Versions: 1 2 3 4 5 6 7 8 9 10 11 12 13 14 15 16 17 18 19 20 21
000
FTUS43 KILX 241700
TAFPIA
TAF
KPIA 241733Z 2418/2518 23008KT 5SM BR SCT015 BKN250
     FM241900 21008KT P6SM SCT015 BKN250
     FM250200 21005KT 3SM BR BKN025
     FM250800 25003KT 1SM BR SCT025
     FM251400 31008KT P6SM SCT015=

USA.gov is the U.S. government's official web portal to all federal, state and local government web resources and services.